sensor_id;sensor_type;location;lat;lon;timestamp;temperature;humidity
58554;DHT22;48119;53.218;6.576;2023-08-20T00:00:28;20.70;99.90
58554;DHT22;48119;53.218;6.576;2023-08-20T00:02:59;20.70;99.90
58554;DHT22;48119;53.218;6.576;2023-08-20T00:05:29;20.70;99.90
58554;DHT22;48119;53.218;6.576;2023-08-20T00:07:55;20.60;99.90
58554;DHT22;48119;53.218;6.576;2023-08-20T00:10:21;20.60;99.90
58554;DHT22;48119;53.218;6.576;2023-08-20T00:12:47;20.60;99.90
58554;DHT22;48119;53.218;6.576;2023-08-20T00:15:12;20.60;99.90
58554;DHT22;48119;53.218;6.576;2023-08-20T00:17:39;20.60;99.90
58554;DHT22;48119;53.218;6.576;2023-08-20T00:20:07;20.50;99.90
58554;DHT22;48119;53.218;6.576;2023-08-20T00:22:36;20.50;99.90
58554;DHT22;48119;53.218;6.576;2023-08-20T00:25:02;20.50;99.90
58554;DHT22;48119;53.218;6.576;2023-08-20T00:27:29;20.50;99.90
58554;DHT22;48119;53.218;6.576;2023-08-20T00:29:55;20.50;99.90
58554;DHT22;48119;53.218;6.576;2023-08-20T00:32:21;20.50;99.90
58554;DHT22;48119;53.218;6.576;2023-08-20T00:34:46;20.50;99.90
58554;DHT22;48119;53.218;6.576;2023-08-20T00:37:12;20.40;99.90
58554;DHT22;48119;53.218;6.576;2023-08-20T00:39:39;20.40;99.90
58554;DHT22;48119;53.218;6.576;2023-08-20T00:42:04;20.40;99.90
58554;DHT22;48119;53.218;6.576;2023-08-20T00:44:31;20.40;99.90
58554;DHT22;48119;53.218;6.576;2023-08-20T00:46:57;20.40;99.90
58554;DHT22;48119;53.218;6.576;2023-08-20T00:49:25;20.40;99.90
58554;DHT22;48119;53.218;6.576;2023-08-20T00:51:52;20.40;99.90
58554;DHT22;48119;53.218;6.576;2023-08-20T00:54:20;20.40;99.90
58554;DHT22;48119;53.218;6.576;2023-08-20T00:56:46;20.40;99.90
58554;DHT22;48119;53.218;6.576;2023-08-20T00:59:13;20.30;99.90
58554;DHT22;48119;53.218;6.576;2023-08-20T01:01:39;20.30;99.90
58554;DHT22;48119;53.218;6.576;2023-08-20T01:04:05;20.30;99.90
58554;DHT22;48119;53.218;6.576;2023-08-20T01:09:09;20.30;99.90
58554;DHT22;48119;53.218;6.576;2023-08-20T01:11:46;20.30;99.90
58554;DHT22;48119;53.218;6.576;2023-08-20T01:14:15;20.30;99.90
58554;DHT22;48119;53.218;6.576;2023-08-20T01:16:42;20.20;99.90
58554;DHT22;48119;53.218;6.576;2023-08-20T01:19:11;20.20;99.90
58554;DHT22;48119;53.218;6.576;2023-08-20T01:27:52;20.30;99.90
58554;DHT22;48119;53.218;6.576;2023-08-20T01:30:19;20.20;99.90
58554;DHT22;48119;53.218;6.576;2023-08-20T01:32:46;20.20;99.90
58554;DHT22;48119;53.218;6.576;2023-08-20T01:35:13;20.20;99.90
58554;DHT22;48119;53.218;6.576;2023-08-20T01:37:40;20.20;99.90
58554;DHT22;48119;53.218;6.576;2023-08-20T01:40:07;20.20;99.90
58554;DHT22;48119;53.218;6.576;2023-08-20T01:42:40;20.20;99.90
58554;DHT22;48119;53.218;6.576;2023-08-20T01:45:06;20.20;99.90
58554;DHT22;48119;53.218;6.576;2023-08-20T01:47:33;20.20;99.90
58554;DHT22;48119;53.218;6.576;2023-08-20T01:49:59;20.20;99.90
58554;DHT22;48119;53.218;6.576;2023-08-20T01:52:25;20.20;99.90
58554;DHT22;48119;53.218;6.576;2023-08-20T01:54:51;20.10;99.90
58554;DHT22;48119;53.218;6.576;2023-08-20T01:57:18;20.20;99.90
58554;DHT22;48119;53.218;6.576;2023-08-20T01:59:43;20.20;99.90
58554;DHT22;48119;53.218;6.576;2023-08-20T02:02:09;20.20;99.90
58554;DHT22;48119;53.218;6.576;2023-08-20T02:04:35;20.10;99.90
58554;DHT22;48119;53.218;6.576;2023-08-20T02:07:00;20.10;99.90
58554;DHT22;48119;53.218;6.576;2023-08-20T02:09:29;20.10;99.90
58554;DHT22;48119;53.218;6.576;2023-08-20T02:11:55;20.10;99.90
58554;DHT22;48119;53.218;6.576;2023-08-20T02:14:21;20.10;99.90
58554;DHT22;48119;53.218;6.576;2023-08-20T02:16:47;20.10;99.90
58554;DHT22;48119;53.218;6.576;2023-08-20T02:19:13;20.10;99.90
58554;DHT22;48119;53.218;6.576;2023-08-20T02:21:40;20.10;99.90
58554;DHT22;48119;53.218;6.576;2023-08-20T02:24:06;20.10;99.90
58554;DHT22;48119;53.218;6.576;2023-08-20T02:26:32;20.10;99.90
58554;DHT22;48119;53.218;6.576;2023-08-20T02:28:58;20.00;99.90
58554;DHT22;48119;53.218;6.576;2023-08-20T02:31:24;20.00;99.90
58554;DHT22;48119;53.218;6.576;2023-08-20T02:33:49;20.00;99.90
58554;DHT22;48119;53.218;6.576;2023-08-20T02:36:18;20.00;99.90
58554;DHT22;48119;53.218;6.576;2023-08-20T02:38:45;20.00;99.90
58554;DHT22;48119;53.218;6.576;2023-08-20T02:41:10;20.00;99.90
58554;DHT22;48119;53.218;6.576;2023-08-20T02:43:37;20.00;99.90
58554;DHT22;48119;53.218;6.576;2023-08-20T02:46:03;20.00;99.90
58554;DHT22;48119;53.218;6.576;2023-08-20T02:48:29;20.00;99.90
58554;DHT22;48119;53.218;6.576;2023-08-20T02:50:55;20.00;99.90
58554;DHT22;48119;53.218;6.576;2023-08-20T02:53:22;19.90;99.90
58554;DHT22;48119;53.218;6.576;2023-08-20T02:55:48;19.90;99.90
58554;DHT22;48119;53.218;6.576;2023-08-20T02:58:14;19.90;99.90
58554;DHT22;48119;53.218;6.576;2023-08-20T03:00:42;19.90;99.90
58554;DHT22;48119;53.218;6.576;2023-08-20T03:03:10;19.90;99.90
58554;DHT22;48119;53.218;6.576;2023-08-20T03:05:36;19.90;99.90
58554;DHT22;48119;53.218;6.576;2023-08-20T03:08:02;19.90;99.90
58554;DHT22;48119;53.218;6.576;2023-08-20T03:10:31;19.90;99.90
58554;DHT22;48119;53.218;6.576;2023-08-20T03:13:01;19.80;99.90
58554;DHT22;48119;53.218;6.576;2023-08-20T03:15:28;19.90;99.90
58554;DHT22;48119;53.218;6.576;2023-08-20T03:17:54;19.80;99.90
58554;DHT22;48119;53.218;6.576;2023-08-20T03:20:20;19.90;99.90
58554;DHT22;48119;53.218;6.576;2023-08-20T03:22:45;19.90;99.90
58554;DHT22;48119;53.218;6.576;2023-08-20T03:25:11;19.90;99.90
58554;DHT22;48119;53.218;6.576;2023-08-20T03:27:37;19.90;99.90
58554;DHT22;48119;53.218;6.576;2023-08-20T03:30:04;19.90;99.90
58554;DHT22;48119;53.218;6.576;2023-08-20T03:32:30;19.80;99.90
58554;DHT22;48119;53.218;6.576;2023-08-20T03:34:56;19.80;99.90
58554;DHT22;48119;53.218;6.576;2023-08-20T03:37:22;19.80;99.90
58554;DHT22;48119;53.218;6.576;2023-08-20T03:39:48;19.80;99.90
58554;DHT22;48119;53.218;6.576;2023-08-20T03:42:14;19.80;99.90
58554;DHT22;48119;53.218;6.576;2023-08-20T03:44:39;19.80;99.90
58554;DHT22;48119;53.218;6.576;2023-08-20T03:47:05;19.80;99.90
58554;DHT22;48119;53.218;6.576;2023-08-20T03:49:31;19.80;99.90
58554;DHT22;48119;53.218;6.576;2023-08-20T03:51:57;19.80;99.90
58554;DHT22;48119;53.218;6.576;2023-08-20T03:54:22;19.80;99.90
58554;DHT22;48119;53.218;6.576;2023-08-20T03:56:48;19.80;99.90
58554;DHT22;48119;53.218;6.576;2023-08-20T03:59:14;19.80;99.90
58554;DHT22;48119;53.218;6.576;2023-08-20T04:01:40;19.80;99.90
58554;DHT22;48119;53.218;6.576;2023-08-20T04:04:05;19.80;99.90
58554;DHT22;48119;53.218;6.576;2023-08-20T04:06:31;19.80;99.90
58554;DHT22;48119;53.218;6.576;2023-08-20T04:08:57;19.80;99.90
58554;DHT22;48119;53.218;6.576;2023-08-20T04:11:22;19.80;99.90
58554;DHT22;48119;53.218;6.576;2023-08-20T04:13:48;19.80;99.90
58554;DHT22;48119;53.218;6.576;2023-08-20T04:16:14;19.70;99.90
58554;DHT22;48119;53.218;6.576;2023-08-20T04:18:40;19.70;99.90
58554;DHT22;48119;53.218;6.576;2023-08-20T04:21:06;19.80;99.90
58554;DHT22;48119;53.218;6.576;2023-08-20T04:23:32;19.70;99.90
58554;DHT22;48119;53.218;6.576;2023-08-20T04:25:58;19.70;99.90
58554;DHT22;48119;53.218;6.576;2023-08-20T04:28:24;19.70;99.90
58554;DHT22;48119;53.218;6.576;2023-08-20T04:30:52;19.70;99.90
58554;DHT22;48119;53.218;6.576;2023-08-20T04:33:20;19.70;99.90
58554;DHT22;48119;53.218;6.576;2023-08-20T04:35:46;19.70;99.90
58554;DHT22;48119;53.218;6.576;2023-08-20T04:38:12;19.70;99.90
58554;DHT22;48119;53.218;6.576;2023-08-20T04:40:38;19.70;99.90
58554;DHT22;48119;53.218;6.576;2023-08-20T04:43:03;19.70;99.90
58554;DHT22;48119;53.218;6.576;2023-08-20T04:45:29;19.60;99.90
58554;DHT22;48119;53.218;6.576;2023-08-20T04:47:55;19.60;99.90
58554;DHT22;48119;53.218;6.576;2023-08-20T04:50:21;19.60;99.90
58554;DHT22;48119;53.218;6.576;2023-08-20T04:52:46;19.60;99.90
58554;DHT22;48119;53.218;6.576;2023-08-20T04:55:12;19.70;99.90
58554;DHT22;48119;53.218;6.576;2023-08-20T04:57:38;19.60;99.90
58554;DHT22;48119;53.218;6.576;2023-08-20T05:00:04;19.60;99.90
58554;DHT22;48119;53.218;6.576;2023-08-20T05:02:30;19.70;99.90
58554;DHT22;48119;53.218;6.576;2023-08-20T05:04:56;19.60;99.90
58554;DHT22;48119;53.218;6.576;2023-08-20T05:07:22;19.60;99.90
58554;DHT22;48119;53.218;6.576;2023-08-20T05:09:49;19.60;99.90
58554;DHT22;48119;53.218;6.576;2023-08-20T05:12:14;19.60;99.90
58554;DHT22;48119;53.218;6.576;2023-08-20T05:14:40;19.50;99.90
58554;DHT22;48119;53.218;6.576;2023-08-20T05:17:06;19.50;99.90
58554;DHT22;48119;53.218;6.576;2023-08-20T05:19:32;19.50;99.90
58554;DHT22;48119;53.218;6.576;2023-08-20T05:21:57;19.50;99.90
58554;DHT22;48119;53.218;6.576;2023-08-20T05:24:25;19.50;99.90
58554;DHT22;48119;53.218;6.576;2023-08-20T05:27:13;19.50;99.90
58554;DHT22;48119;53.218;6.576;2023-08-20T05:29:45;19.50;99.90
58554;DHT22;48119;53.218;6.576;2023-08-20T05:32:14;19.50;99.90
58554;DHT22;48119;53.218;6.576;2023-08-20T05:34:41;19.50;99.90
58554;DHT22;48119;53.218;6.576;2023-08-20T05:37:07;19.50;99.90
58554;DHT22;48119;53.218;6.576;2023-08-20T05:39:41;19.50;99.90
58554;DHT22;48119;53.218;6.576;2023-08-20T05:42:07;19.50;99.90
58554;DHT22;48119;53.218;6.576;2023-08-20T05:44:32;19.50;99.90
58554;DHT22;48119;53.218;6.576;2023-08-20T05:46:58;19.50;99.90
58554;DHT22;48119;53.218;6.576;2023-08-20T05:49:24;19.50;99.90
58554;DHT22;48119;53.218;6.576;2023-08-20T05:51:50;19.50;99.90
58554;DHT22;48119;53.218;6.576;2023-08-20T05:54:15;19.50;99.90
58554;DHT22;48119;53.218;6.576;2023-08-20T05:56:41;19.50;99.90
58554;DHT22;48119;53.218;6.576;2023-08-20T05:59:07;19.50;99.90
58554;DHT22;48119;53.218;6.576;2023-08-20T06:01:32;19.50;99.90
58554;DHT22;48119;53.218;6.576;2023-08-20T06:03:58;19.50;99.90
58554;DHT22;48119;53.218;6.576;2023-08-20T06:06:25;19.60;99.90
58554;DHT22;48119;53.218;6.576;2023-08-20T06:08:51;19.50;99.90
58554;DHT22;48119;53.218;6.576;2023-08-20T06:11:17;19.60;99.90
58554;DHT22;48119;53.218;6.576;2023-08-20T06:13:43;19.60;99.90
58554;DHT22;48119;53.218;6.576;2023-08-20T06:16:08;19.60;99.90
58554;DHT22;48119;53.218;6.576;2023-08-20T06:18:34;19.60;99.90
58554;DHT22;48119;53.218;6.576;2023-08-20T06:21:00;19.60;99.90
58554;DHT22;48119;53.218;6.576;2023-08-20T06:23:26;19.60;99.90
58554;DHT22;48119;53.218;6.576;2023-08-20T06:25:51;19.70;99.90
58554;DHT22;48119;53.218;6.576;2023-08-20T06:28:21;19.70;99.90
58554;DHT22;48119;53.218;6.576;2023-08-20T06:30:46;19.70;99.90
58554;DHT22;48119;53.218;6.576;2023-08-20T06:33:12;19.70;99.90
58554;DHT22;48119;53.218;6.576;2023-08-20T06:35:38;19.70;99.90
58554;DHT22;48119;53.218;6.576;2023-08-20T06:38:04;19.80;99.90
58554;DHT22;48119;53.218;6.576;2023-08-20T06:40:30;19.80;99.90
58554;DHT22;48119;53.218;6.576;2023-08-20T06:42:57;19.80;99.90
58554;DHT22;48119;53.218;6.576;2023-08-20T06:45:22;19.80;99.90
58554;DHT22;48119;53.218;6.576;2023-08-20T06:47:48;19.90;99.90
58554;DHT22;48119;53.218;6.576;2023-08-20T06:50:14;19.80;99.90
58554;DHT22;48119;53.218;6.576;2023-08-20T06:52:40;19.80;99.90
58554;DHT22;48119;53.218;6.576;2023-08-20T06:55:08;19.90;99.90
58554;DHT22;48119;53.218;6.576;2023-08-20T06:57:34;19.90;99.90
58554;DHT22;48119;53.218;6.576;2023-08-20T07:00:00;19.90;99.90
58554;DHT22;48119;53.218;6.576;2023-08-20T07:02:25;20.00;99.90
58554;DHT22;48119;53.218;6.576;2023-08-20T07:04:51;20.00;99.90
58554;DHT22;48119;53.218;6.576;2023-08-20T07:07:17;20.00;99.90
58554;DHT22;48119;53.218;6.576;2023-08-20T07:09:43;19.90;99.90
58554;DHT22;48119;53.218;6.576;2023-08-20T07:12:08;20.00;99.90
58554;DHT22;48119;53.218;6.576;2023-08-20T07:14:34;20.00;99.90
58554;DHT22;48119;53.218;6.576;2023-08-20T07:17:00;20.00;99.90
58554;DHT22;48119;53.218;6.576;2023-08-20T07:19:28;20.10;99.90
58554;DHT22;48119;53.218;6.576;2023-08-20T07:21:54;20.10;99.90
58554;DHT22;48119;53.218;6.576;2023-08-20T07:24:20;20.10;99.90
58554;DHT22;48119;53.218;6.576;2023-08-20T07:26:51;20.20;99.90
58554;DHT22;48119;53.218;6.576;2023-08-20T07:29:17;20.20;99.90
58554;DHT22;48119;53.218;6.576;2023-08-20T07:31:43;20.20;99.90
58554;DHT22;48119;53.218;6.576;2023-08-20T07:34:09;20.20;99.90
58554;DHT22;48119;53.218;6.576;2023-08-20T07:36:43;20.30;99.90
58554;DHT22;48119;53.218;6.576;2023-08-20T07:39:09;20.30;99.90
58554;DHT22;48119;53.218;6.576;2023-08-20T07:41:35;20.30;99.90
58554;DHT22;48119;53.218;6.576;2023-08-20T07:44:00;20.30;99.90
58554;DHT22;48119;53.218;6.576;2023-08-20T07:46:26;20.40;99.90
58554;DHT22;48119;53.218;6.576;2023-08-20T07:48:52;20.40;99.90
58554;DHT22;48119;53.218;6.576;2023-08-20T07:51:18;20.40;99.90
58554;DHT22;48119;53.218;6.576;2023-08-20T07:53:43;20.50;99.90
58554;DHT22;48119;53.218;6.576;2023-08-20T07:56:09;20.50;99.90
58554;DHT22;48119;53.218;6.576;2023-08-20T07:58:35;20.50;99.90
58554;DHT22;48119;53.218;6.576;2023-08-20T08:01:00;20.50;99.90
58554;DHT22;48119;53.218;6.576;2023-08-20T08:03:26;20.50;99.90
58554;DHT22;48119;53.218;6.576;2023-08-20T08:05:52;20.60;99.90
58554;DHT22;48119;53.218;6.576;2023-08-20T08:08:19;20.60;99.90
58554;DHT22;48119;53.218;6.576;2023-08-20T08:10:46;20.60;99.90
58554;DHT22;48119;53.218;6.576;2023-08-20T08:13:12;20.70;99.90
58554;DHT22;48119;53.218;6.576;2023-08-20T08:15:38;20.70;99.90
58554;DHT22;48119;53.218;6.576;2023-08-20T08:18:11;20.70;99.90
58554;DHT22;48119;53.218;6.576;2023-08-20T08:20:37;20.70;99.90
58554;DHT22;48119;53.218;6.576;2023-08-20T08:23:03;20.80;99.90
58554;DHT22;48119;53.218;6.576;2023-08-20T08:25:29;20.70;99.90
58554;DHT22;48119;53.218;6.576;2023-08-20T08:27:55;20.80;99.90
58554;DHT22;48119;53.218;6.576;2023-08-20T08:30:24;20.90;99.90
58554;DHT22;48119;53.218;6.576;2023-08-20T08:32:50;20.90;99.90
58554;DHT22;48119;53.218;6.576;2023-08-20T08:35:16;20.90;99.90
58554;DHT22;48119;53.218;6.576;2023-08-20T08:37:42;20.90;99.90
58554;DHT22;48119;53.218;6.576;2023-08-20T08:40:08;21.00;99.90
58554;DHT22;48119;53.218;6.576;2023-08-20T08:42:34;21.00;99.90
58554;DHT22;48119;53.218;6.576;2023-08-20T08:45:00;21.00;99.90
58554;DHT22;48119;53.218;6.576;2023-08-20T08:47:26;21.00;99.90
58554;DHT22;48119;53.218;6.576;2023-08-20T08:49:54;21.00;99.90
58554;DHT22;48119;53.218;6.576;2023-08-20T08:52:22;21.10;99.90
58554;DHT22;48119;53.218;6.576;2023-08-20T08:54:48;21.10;99.90
58554;DHT22;48119;53.218;6.576;2023-08-20T08:57:17;21.20;99.90
58554;DHT22;48119;53.218;6.576;2023-08-20T08:59:43;21.20;99.90
58554;DHT22;48119;53.218;6.576;2023-08-20T09:02:11;21.20;99.90
58554;DHT22;48119;53.218;6.576;2023-08-20T09:04:41;21.20;99.90
58554;DHT22;48119;53.218;6.576;2023-08-20T09:07:14;21.30;99.90
58554;DHT22;48119;53.218;6.576;2023-08-20T09:09:44;21.30;99.90
58554;DHT22;48119;53.218;6.576;2023-08-20T09:12:14;21.30;99.90
58554;DHT22;48119;53.218;6.576;2023-08-20T09:14:48;21.40;99.90
58554;DHT22;48119;53.218;6.576;2023-08-20T09:17:14;21.50;99.90
58554;DHT22;48119;53.218;6.576;2023-08-20T09:19:43;21.50;99.90
58554;DHT22;48119;53.218;6.576;2023-08-20T09:22:12;21.50;99.90
58554;DHT22;48119;53.218;6.576;2023-08-20T09:24:44;21.60;99.90
58554;DHT22;48119;53.218;6.576;2023-08-20T09:27:14;21.60;99.90
58554;DHT22;48119;53.218;6.576;2023-08-20T09:29:54;21.60;99.90
58554;DHT22;48119;53.218;6.576;2023-08-20T09:32:22;21.60;99.90
58554;DHT22;48119;53.218;6.576;2023-08-20T09:34:49;21.60;99.90
58554;DHT22;48119;53.218;6.576;2023-08-20T09:37:16;21.70;99.90
58554;DHT22;48119;53.218;6.576;2023-08-20T09:39:45;21.70;99.90
58554;DHT22;48119;53.218;6.576;2023-08-20T09:42:12;21.70;99.90
58554;DHT22;48119;53.218;6.576;2023-08-20T09:44:43;21.70;99.90
58554;DHT22;48119;53.218;6.576;2023-08-20T09:47:13;21.80;99.90
58554;DHT22;48119;53.218;6.576;2023-08-20T09:49:41;21.80;99.90
58554;DHT22;48119;53.218;6.576;2023-08-20T09:52:18;21.90;99.90
58554;DHT22;48119;53.218;6.576;2023-08-20T09:57:19;22.00;99.90
58554;DHT22;48119;53.218;6.576;2023-08-20T09:59:50;22.00;99.90
58554;DHT22;48119;53.218;6.576;2023-08-20T10:02:17;22.10;99.90
58554;DHT22;48119;53.218;6.576;2023-08-20T10:04:43;22.10;99.90
58554;DHT22;48119;53.218;6.576;2023-08-20T10:07:10;22.20;99.90
58554;DHT22;48119;53.218;6.576;2023-08-20T10:09:41;22.30;99.90
58554;DHT22;48119;53.218;6.576;2023-08-20T10:12:08;22.30;99.90
58554;DHT22;48119;53.218;6.576;2023-08-20T10:14:34;22.30;99.90
58554;DHT22;48119;53.218;6.576;2023-08-20T10:17:06;22.40;99.90
58554;DHT22;48119;53.218;6.576;2023-08-20T10:19:33;22.40;99.90
58554;DHT22;48119;53.218;6.576;2023-08-20T10:22:02;22.40;99.90
58554;DHT22;48119;53.218;6.576;2023-08-20T10:24:30;22.50;99.90
58554;DHT22;48119;53.218;6.576;2023-08-20T10:27:11;22.50;99.90
58554;DHT22;48119;53.218;6.576;2023-08-20T10:29:40;22.60;99.90
58554;DHT22;48119;53.218;6.576;2023-08-20T10:32:10;22.60;99.90
58554;DHT22;48119;53.218;6.576;2023-08-20T10:34:38;22.60;99.90
58554;DHT22;48119;53.218;6.576;2023-08-20T10:37:12;22.60;99.90
58554;DHT22;48119;53.218;6.576;2023-08-20T10:39:38;22.70;99.90
58554;DHT22;48119;53.218;6.576;2023-08-20T10:45:07;22.70;99.90
58554;DHT22;48119;53.218;6.576;2023-08-20T10:47:44;22.80;99.90
58554;DHT22;48119;53.218;6.576;2023-08-20T10:50:12;22.80;99.90
58554;DHT22;48119;53.218;6.576;2023-08-20T10:52:41;22.80;99.90
58554;DHT22;48119;53.218;6.576;2023-08-20T10:55:07;22.90;99.90
58554;DHT22;48119;53.218;6.576;2023-08-20T10:57:36;22.90;99.90
58554;DHT22;48119;53.218;6.576;2023-08-20T11:00:04;23.00;99.90
58554;DHT22;48119;53.218;6.576;2023-08-20T11:02:38;23.00;99.90
58554;DHT22;48119;53.218;6.576;2023-08-20T11:05:04;23.10;99.90
58554;DHT22;48119;53.218;6.576;2023-08-20T11:07:41;23.10;99.90
58554;DHT22;48119;53.218;6.576;2023-08-20T11:10:07;23.10;99.90
58554;DHT22;48119;53.218;6.576;2023-08-20T11:12:33;23.20;99.90
58554;DHT22;48119;53.218;6.576;2023-08-20T11:15:02;23.20;99.90
58554;DHT22;48119;53.218;6.576;2023-08-20T11:17:28;23.20;99.90
58554;DHT22;48119;53.218;6.576;2023-08-20T11:19:54;23.30;99.90
58554;DHT22;48119;53.218;6.576;2023-08-20T11:22:20;23.30;99.90
58554;DHT22;48119;53.218;6.576;2023-08-20T11:24:46;23.30;99.90
58554;DHT22;48119;53.218;6.576;2023-08-20T11:27:12;23.30;99.90
58554;DHT22;48119;53.218;6.576;2023-08-20T11:29:42;23.30;99.90
58554;DHT22;48119;53.218;6.576;2023-08-20T11:32:09;23.30;99.90
58554;DHT22;48119;53.218;6.576;2023-08-20T11:34:35;23.40;99.90
58554;DHT22;48119;53.218;6.576;2023-08-20T11:37:01;23.40;99.90
58554;DHT22;48119;53.218;6.576;2023-08-20T11:39:29;23.40;99.90
58554;DHT22;48119;53.218;6.576;2023-08-20T11:41:55;23.40;99.90
58554;DHT22;48119;53.218;6.576;2023-08-20T11:44:22;23.40;99.90
58554;DHT22;48119;53.218;6.576;2023-08-20T11:46:48;23.40;99.90
58554;DHT22;48119;53.218;6.576;2023-08-20T11:49:14;23.50;99.90
58554;DHT22;48119;53.218;6.576;2023-08-20T11:51:58;23.50;99.90
58554;DHT22;48119;53.218;6.576;2023-08-20T11:54:24;23.50;99.90
58554;DHT22;48119;53.218;6.576;2023-08-20T11:56:52;23.50;99.90
58554;DHT22;48119;53.218;6.576;2023-08-20T11:59:20;23.60;99.90
58554;DHT22;48119;53.218;6.576;2023-08-20T12:01:57;23.70;99.90
58554;DHT22;48119;53.218;6.576;2023-08-20T12:04:26;23.70;99.90
58554;DHT22;48119;53.218;6.576;2023-08-20T12:07:13;23.70;99.90
58554;DHT22;48119;53.218;6.576;2023-08-20T12:09:39;23.80;99.90
58554;DHT22;48119;53.218;6.576;2023-08-20T12:12:06;23.80;99.90
58554;DHT22;48119;53.218;6.576;2023-08-20T12:14:33;23.80;99.90
58554;DHT22;48119;53.218;6.576;2023-08-20T12:16:58;23.70;99.90
58554;DHT22;48119;53.218;6.576;2023-08-20T12:19:25;23.80;99.90
58554;DHT22;48119;53.218;6.576;2023-08-20T12:21:51;23.70;99.90
58554;DHT22;48119;53.218;6.576;2023-08-20T12:24:17;23.70;99.90
58554;DHT22;48119;53.218;6.576;2023-08-20T12:26:45;23.80;99.90
58554;DHT22;48119;53.218;6.576;2023-08-20T12:29:13;23.80;99.90
58554;DHT22;48119;53.218;6.576;2023-08-20T12:31:40;23.70;99.90
58554;DHT22;48119;53.218;6.576;2023-08-20T12:34:07;23.80;99.90
58554;DHT22;48119;53.218;6.576;2023-08-20T12:36:37;23.80;99.90
58554;DHT22;48119;53.218;6.576;2023-08-20T12:39:03;23.80;99.90
58554;DHT22;48119;53.218;6.576;2023-08-20T12:41:32;23.90;99.90
58554;DHT22;48119;53.218;6.576;2023-08-20T12:43:58;23.90;99.90
58554;DHT22;48119;53.218;6.576;2023-08-20T12:46:24;23.90;99.90
58554;DHT22;48119;53.218;6.576;2023-08-20T12:48:50;23.90;99.90
58554;DHT22;48119;53.218;6.576;2023-08-20T12:51:16;23.90;99.90
58554;DHT22;48119;53.218;6.576;2023-08-20T12:53:43;23.90;99.90
58554;DHT22;48119;53.218;6.576;2023-08-20T12:56:12;23.80;99.90
58554;DHT22;48119;53.218;6.576;2023-08-20T12:58:40;23.80;99.90
58554;DHT22;48119;53.218;6.576;2023-08-20T13:01:05;23.90;99.90
58554;DHT22;48119;53.218;6.576;2023-08-20T13:03:31;23.90;99.90
58554;DHT22;48119;53.218;6.576;2023-08-20T13:05:57;23.90;99.90
58554;DHT22;48119;53.218;6.576;2023-08-20T13:08:24;23.90;99.90
58554;DHT22;48119;53.218;6.576;2023-08-20T13:10:55;23.90;99.90
58554;DHT22;48119;53.218;6.576;2023-08-20T13:13:22;23.90;99.90
58554;DHT22;48119;53.218;6.576;2023-08-20T13:15:50;23.90;99.90
58554;DHT22;48119;53.218;6.576;2023-08-20T13:18:16;23.90;99.90
58554;DHT22;48119;53.218;6.576;2023-08-20T13:20:43;23.90;99.90
58554;DHT22;48119;53.218;6.576;2023-08-20T13:23:09;23.90;99.90
58554;DHT22;48119;53.218;6.576;2023-08-20T13:25:35;23.90;99.90
58554;DHT22;48119;53.218;6.576;2023-08-20T13:28:00;23.90;99.90
58554;DHT22;48119;53.218;6.576;2023-08-20T13:30:26;23.90;99.90
58554;DHT22;48119;53.218;6.576;2023-08-20T13:32:52;23.80;99.90
58554;DHT22;48119;53.218;6.576;2023-08-20T13:35:18;23.90;99.90
58554;DHT22;48119;53.218;6.576;2023-08-20T13:37:44;23.90;99.90
58554;DHT22;48119;53.218;6.576;2023-08-20T13:40:11;23.90;99.90
58554;DHT22;48119;53.218;6.576;2023-08-20T13:42:37;23.90;99.80
58554;DHT22;48119;53.218;6.576;2023-08-20T13:45:03;23.90;99.90
58554;DHT22;48119;53.218;6.576;2023-08-20T13:47:30;23.90;99.90
58554;DHT22;48119;53.218;6.576;2023-08-20T13:49:55;23.90;99.90
58554;DHT22;48119;53.218;6.576;2023-08-20T13:52:21;23.90;99.90
58554;DHT22;48119;53.218;6.576;2023-08-20T13:54:47;23.90;99.90
58554;DHT22;48119;53.218;6.576;2023-08-20T13:57:12;23.90;99.90
58554;DHT22;48119;53.218;6.576;2023-08-20T13:59:38;23.90;99.90
58554;DHT22;48119;53.218;6.576;2023-08-20T14:02:04;24.00;99.90
58554;DHT22;48119;53.218;6.576;2023-08-20T14:04:30;24.00;99.80
58554;DHT22;48119;53.218;6.576;2023-08-20T14:06:56;24.00;99.70
58554;DHT22;48119;53.218;6.576;2023-08-20T14:09:22;24.00;99.80
58554;DHT22;48119;53.218;6.576;2023-08-20T14:11:48;24.00;99.90
58554;DHT22;48119;53.218;6.576;2023-08-20T14:14:13;24.10;99.90
58554;DHT22;48119;53.218;6.576;2023-08-20T14:16:39;24.00;99.90
58554;DHT22;48119;53.218;6.576;2023-08-20T14:19:05;24.00;99.90
58554;DHT22;48119;53.218;6.576;2023-08-20T14:21:31;24.00;99.90
58554;DHT22;48119;53.218;6.576;2023-08-20T14:23:57;24.00;99.90
58554;DHT22;48119;53.218;6.576;2023-08-20T14:26:23;24.00;99.90
58554;DHT22;48119;53.218;6.576;2023-08-20T14:28:49;24.10;99.90
58554;DHT22;48119;53.218;6.576;2023-08-20T14:31:15;24.10;99.90
58554;DHT22;48119;53.218;6.576;2023-08-20T14:33:41;24.10;99.90
58554;DHT22;48119;53.218;6.576;2023-08-20T14:36:06;24.10;99.90
58554;DHT22;48119;53.218;6.576;2023-08-20T14:38:32;24.10;99.90
58554;DHT22;48119;53.218;6.576;2023-08-20T14:41:02;24.10;99.90
58554;DHT22;48119;53.218;6.576;2023-08-20T14:43:29;24.00;99.90
58554;DHT22;48119;53.218;6.576;2023-08-20T14:45:55;24.00;99.70
58554;DHT22;48119;53.218;6.576;2023-08-20T14:48:22;24.00;99.70
58554;DHT22;48119;53.218;6.576;2023-08-20T14:50:48;23.90;99.90
58554;DHT22;48119;53.218;6.576;2023-08-20T14:53:14;23.90;99.90
58554;DHT22;48119;53.218;6.576;2023-08-20T14:55:40;23.90;99.90
58554;DHT22;48119;53.218;6.576;2023-08-20T14:58:06;23.90;99.90
58554;DHT22;48119;53.218;6.576;2023-08-20T15:00:35;23.90;99.90
58554;DHT22;48119;53.218;6.576;2023-08-20T15:03:00;23.90;99.70
58554;DHT22;48119;53.218;6.576;2023-08-20T15:05:26;23.90;99.40
58554;DHT22;48119;53.218;6.576;2023-08-20T15:07:52;23.90;99.10
58554;DHT22;48119;53.218;6.576;2023-08-20T15:10:18;23.90;98.90
58554;DHT22;48119;53.218;6.576;2023-08-20T15:12:44;23.90;98.60
58554;DHT22;48119;53.218;6.576;2023-08-20T15:15:10;23.90;98.80
58554;DHT22;48119;53.218;6.576;2023-08-20T15:17:36;23.90;99.10
58554;DHT22;48119;53.218;6.576;2023-08-20T15:20:03;23.90;99.40
58554;DHT22;48119;53.218;6.576;2023-08-20T15:22:39;23.90;99.60
58554;DHT22;48119;53.218;6.576;2023-08-20T15:25:05;23.90;99.60
58554;DHT22;48119;53.218;6.576;2023-08-20T15:27:36;23.90;99.50
58554;DHT22;48119;53.218;6.576;2023-08-20T15:30:03;23.90;99.20
58554;DHT22;48119;53.218;6.576;2023-08-20T15:32:30;23.90;99.20
58554;DHT22;48119;53.218;6.576;2023-08-20T15:34:56;23.90;99.40
58554;DHT22;48119;53.218;6.576;2023-08-20T15:37:22;23.80;99.30
58554;DHT22;48119;53.218;6.576;2023-08-20T15:39:48;23.90;99.40
58554;DHT22;48119;53.218;6.576;2023-08-20T15:42:13;23.90;99.30